Главная страница
METAR-TAF:

METAR-TAF

Аэропорты :

Вьё-Фор, Сент-Люсия

широта: 13-45N, долгота: 060-57W, высота над уровнем моря: 3 м

Текущие метеонаблюдения

Эта сводка был подготовлена 11 минут назад, в 19:00 UTC
Ветер 16 Узел от восточный
Температура 29°C
Влажность 66%
Давление 1015 hPa
Видимость 10 км и более
небольшая облачность на высоте 2900 фута

METAR: TLPL 121900Z 10016KT 9999 FEW029 29/22 Q1015 NOSIG

Время: 15:11 (19:11 UTC)

Прогноз

Эта сводка был подготовлена 1 час и 26 минут назад, в 17:45 UTC
Прогноз действительный с 12-го 18 UTC до 13-го 18 UTC
Ветер 18 Узел от восточный
Видимость 10 км и более
Отдельные облака на высоте 2400 фута
Вероятность 30% :
временами
С 13-го 09 UTC до 13-го 15 UTC
Отдельные облака на высоте 2000 фута
Рассеянная облачность на высоте 4000 фута
ливневые дожди

TAF: TLPL 121745Z 1218/1318 09018KT 9999 SCT024 PROB30 TEMPO 1309/1315 SHRA SCT020 BKN040

Метеонаблюдения и прогнозы для более 4000 аэропортов (сводки METAR и TAF).

Имеющиеся станции представлены на карте желтыми и красными точками.

Чтобы увидеть название станции, наведите на нее мышь.

Затем щелкните, чтобы увидеть метеонаблюдения и метеопрогнозы.

Управление картой: чтобы увеличить масштаб, щелкните зеленые кнопки с черным крестиком; чтобы уменьшить масштаб, щелкните зеленую кнопку с тире; для просмотра соседних карт щелкайте зеленые стрелки.


METAR-TAF: